Portada
METAR-TAF:

METAR-TAF

Aeropuertos :

Champaign / Urbana, Illinois, Estados Unidos

latitud: 40-01-56N, longitud: 088-16-24W, altitud: 229 m

Observación

El informe se hizo hace 24 minutos, a las 19:53 UTC
Viento 12 kt del sur con ráfagas de 18 kt
Temperatura 33°C
Humedad 41%
Presión 1023 hPa
Visibilidad: 16.1 km
Nubes dispersas a una altura de 4800 ft

METAR: KCMI 191953Z 18012G18KT 10SM SCT048 33/18 A3021 RMK AO2 SLP222 T03330183

Hora: 15:17 (20:17 UTC)

Pronóstico

El informe se hizo hace 2 horas y 57 minutos, a las 17:20 UTC
Pronóstico válido del 19 a las 18 UTC al 20 a las 18 UTC
Viento 10 kt del sur
Visibilidad: 10 km
Nubes dispersas a una altura de 4000 ft
Nubes dispersas a una altura de 12000 ft
A partir de las 20 a las 0100 UTC
Viento 5 kt del sur-sureste
Visibilidad: 10 km
Nubes dispersas a una altura de 15000 ft

TAF: KCMI 191720Z 1918/2018 19010KT P6SM SCT040 SCT120 FM200100 15005KT P6SM SCT150

Observaciones y pronósticos meteorológicos de más de 4000 aeropuertos (mensajes METAR y TAF).

Los puntos amarillos y rojos representan las estaciones disponibles.

Ponga el ratón en el punto deseado para ver el nombre de la estación.

Haga clic para ver las observaciones y los pronósticos meteorológicos.

Para cambiar el mapa : haga clic en los botones verdes con una cruz de color negro para hacer un zoom, en el botón verde con un guión para alejar o en las flechas verdes para mapas adyacentes.


METAR-TAF: